• Join FlightAware (Why Join?)
  • Login
  • US Flag 
07:49PM EDT


 

Airport Tracker/Info


-or-


 

Live Flight TrackerFlight Track Log ✈ CNK432 ✈ 24-Apr-2013 ✈ CYEG - CYYC

Flight Track Log - Related Links

Times and Time Zones

All times are in EDT time to prevent confusion due to time zone crossing. See the CNK432 flight status page for this flight to view local times or setup timezone preferences in your user account.

Time Position Orientation Groundspeed Altitude Reporting Facility
EDT Latitude Longitude Course Direction KTS MPH feet Rate Location/Type
04:58PM 53.2833 -113.5000 130° Southeast 180 207 5,500  Level Edmonton Center
04:59PM 53.2333 -113.4833 169° South 190 219 7,800 2,100 Climbing Edmonton Center
05:00PM 53.1833 -113.5000 191° South 200 230 9,800 1,920 Climbing Edmonton Center
05:01PM 53.1167 -113.4833 171° South 210 242 11,700 1,860 Climbing Edmonton Center
05:02PM 53.0667 -113.5000 191° South 220 253 13,600 1,560 Climbing Edmonton Center
05:03PM 53.0000 -113.5167 189° South 250 288 14,900 1,440 Climbing Edmonton Center
05:04PM 52.9333 -113.5000 171° South 260 299 16,500 960 Climbing Edmonton Center
05:05PM 52.8667 -113.5167 189° South 270 311 16,900 240 Climbing Edmonton Center
05:06PM 52.7667 -113.5333 186° South 280 322 17,000  Climbing Edmonton Center
05:07PM 52.6833 -113.5333 180° South 300 345 17,000 -60 Level Edmonton Center
05:08PM 52.6000 -113.5500 187° South 300 345 16,900 -60 Descending Edmonton Center
05:09PM 52.5167 -113.5667 187° South 310 357 16,900  Level Edmonton Center
05:10PM 52.4333 -113.5667 180° South 300 345 17,000  Climbing Edmonton Center
05:11PM 52.3500 -113.5833 187° South 300 345 17,000 -60 Level Edmonton Center
05:12PM 52.2667 -113.5667 173° South 310 357 16,900  Descending Edmonton Center
05:13PM 52.1833 -113.5833 187° South 300 345 17,000  Climbing Edmonton Center
05:14PM 52.0833 -113.5833 180° South 300 345 16,900 -60 Descending Edmonton Center
05:15PM 52.0000 -113.6000 187° South 300 345 16,900 -300 Level Edmonton Center
05:16PM 51.9167 -113.6000 180° South 300 345 16,400 -960 Descending Edmonton Center
05:17PM 51.8500 -113.6167 189° South 300 345 15,000 -1,500 Descending Edmonton Center
05:18PM 51.7667 -113.6333 187° South 300 345 13,400 -1,500 Descending Edmonton Center
05:19PM 51.7000 -113.6667 197° South 270 311 12,000 -1,200 Descending Edmonton Center
05:20PM 51.6167 -113.6833 187° South 240 276 11,000 -600 Descending Edmonton Center
05:21PM 51.5500 -113.7167 197° South 230 265 10,800 -480 Descending Edmonton Center
05:22PM 51.5000 -113.7333 192° South 220 253 10,100 -420 Descending Edmonton Center
05:23PM 51.4500 -113.7500 192° South 210 242 10,000 -60 Descending Edmonton Center
05:24PM 51.3833 -113.7667 189° South 210 242 10,000  Level Edmonton Center
05:25PM 51.3167 -113.8167 205° Southwest 210 242 10,000  Level Edmonton Center
05:26PM 51.2667 -113.8333 192° South 220 253 10,000 -300 Level Edmonton Center
05:27PM 51.2000 -113.8500 189° South 210 242 9,400 -720 Descending Edmonton Center
05:28PM 51.1500 -113.8500 180° South 220 253 8,600 -720 Descending Edmonton Center
05:29PM 51.1000 -113.8000 148° Southeast 220 253 8,000 -300 Descending Edmonton Center
05:30PM 51.0833 -113.7000 105° East 220 253 8,000 -120 Level Edmonton Center
05:31PM 51.0500 -113.6167 122° Southeast 210 242 7,800 -600 Descending Edmonton Center
05:32PM 51.0000 -113.5833 157° South 190 219 6,900 -900 Descending Edmonton Center
05:33PM 50.9500 -113.6333 212° Southwest 190 219 6,000 -480 Descending Edmonton Center
05:34PM 50.9667 -113.6833 298° West 190 219 6,000 -60 Level Edmonton Center
05:35PM 50.9833 -113.7667 288° West 190 219 5,900 -60 Descending Edmonton Center
05:36PM 51.0167 -113.8333 308° West 190 219 5,900 -420 Level Edmonton Center
05:37PM 51.0500 -113.9167 302° West 190 219 5,100 -840 Descending Edmonton Center
05:38PM 51.0667 -113.9833 292° West 160 184 4,300 -780 Descending Edmonton Center
05:39PM 51.0833 -114.0333 298° West 120 138 3,600 -420 Descending Edmonton Center
05:40PM 51.1000 -114.0667 309° West 100 115 3,500 -120 Descending Edmonton Center